sensor_id;sensor_type;location;lat;lon;timestamp;P1;durP1;ratioP1;P2;durP2;ratioP2
64052;SDS011;50299;49.524;8.536;2022-07-06T00:02:22;3.83;;;2.63;;
64052;SDS011;50299;49.524;8.536;2022-07-06T00:04:48;3.63;;;3.00;;
64052;SDS011;50299;49.524;8.536;2022-07-06T00:07:15;3.08;;;2.88;;
64052;SDS011;50299;49.524;8.536;2022-07-06T00:09:41;5.78;;;3.13;;
64052;SDS011;50299;49.524;8.536;2022-07-06T00:12:08;3.13;;;2.83;;
64052;SDS011;50299;49.524;8.536;2022-07-06T00:14:35;3.28;;;2.63;;
64052;SDS011;50299;49.524;8.536;2022-07-06T00:17:01;3.38;;;2.97;;
64052;SDS011;50299;49.524;8.536;2022-07-06T00:19:28;3.40;;;2.83;;
64052;SDS011;50299;49.524;8.536;2022-07-06T00:21:55;2.95;;;2.75;;
64052;SDS011;50299;49.524;8.536;2022-07-06T00:24:21;3.53;;;3.30;;
64052;SDS011;50299;49.524;8.536;2022-07-06T00:26:48;2.97;;;2.78;;
64052;SDS011;50299;49.524;8.536;2022-07-06T00:29:14;4.88;;;3.20;;
64052;SDS011;50299;49.524;8.536;2022-07-06T00:31:40;3.92;;;2.83;;
64052;SDS011;50299;49.524;8.536;2022-07-06T00:34:07;4.60;;;3.13;;
64052;SDS011;50299;49.524;8.536;2022-07-06T00:36:33;5.38;;;3.35;;
64052;SDS011;50299;49.524;8.536;2022-07-06T00:39:00;2.92;;;2.72;;
64052;SDS011;50299;49.524;8.536;2022-07-06T00:41:26;5.75;;;3.10;;
64052;SDS011;50299;49.524;8.536;2022-07-06T00:43:53;3.88;;;3.40;;
64052;SDS011;50299;49.524;8.536;2022-07-06T00:46:31;4.22;;;3.17;;
64052;SDS011;50299;49.524;8.536;2022-07-06T00:48:58;4.78;;;3.58;;
64052;SDS011;50299;49.524;8.536;2022-07-06T00:51:28;9.63;;;3.83;;
64052;SDS011;50299;49.524;8.536;2022-07-06T00:54:00;4.10;;;3.70;;
64052;SDS011;50299;49.524;8.536;2022-07-06T00:56:30;4.00;;;3.60;;
64052;SDS011;50299;49.524;8.536;2022-07-06T00:59:00;3.95;;;3.58;;
64052;SDS011;50299;49.524;8.536;2022-07-06T01:01:28;4.30;;;3.92;;
64052;SDS011;50299;49.524;8.536;2022-07-06T01:03:54;3.85;;;3.55;;
64052;SDS011;50299;49.524;8.536;2022-07-06T01:06:21;3.85;;;3.47;;
64052;SDS011;50299;49.524;8.536;2022-07-06T01:08:47;4.10;;;3.67;;
64052;SDS011;50299;49.524;8.536;2022-07-06T01:11:14;4.85;;;3.55;;
64052;SDS011;50299;49.524;8.536;2022-07-06T01:13:44;3.75;;;3.45;;
64052;SDS011;50299;49.524;8.536;2022-07-06T01:16:10;6.18;;;3.78;;
64052;SDS011;50299;49.524;8.536;2022-07-06T01:18:37;4.68;;;3.95;;
64052;SDS011;50299;49.524;8.536;2022-07-06T01:21:11;4.35;;;3.72;;
64052;SDS011;50299;49.524;8.536;2022-07-06T01:23:42;4.03;;;3.63;;
64052;SDS011;50299;49.524;8.536;2022-07-06T01:26:11;6.75;;;3.50;;
64052;SDS011;50299;49.524;8.536;2022-07-06T01:28:38;5.47;;;3.85;;
64052;SDS011;50299;49.524;8.536;2022-07-06T01:31:05;4.10;;;3.78;;
64052;SDS011;50299;49.524;8.536;2022-07-06T01:33:40;4.00;;;3.58;;
64052;SDS011;50299;49.524;8.536;2022-07-06T01:36:07;6.30;;;3.92;;
64052;SDS011;50299;49.524;8.536;2022-07-06T01:38:42;3.97;;;3.45;;
64052;SDS011;50299;49.524;8.536;2022-07-06T01:41:16;3.85;;;3.42;;
64052;SDS011;50299;49.524;8.536;2022-07-06T01:43:44;4.53;;;3.42;;
64052;SDS011;50299;49.524;8.536;2022-07-06T01:46:11;4.03;;;3.67;;
64052;SDS011;50299;49.524;8.536;2022-07-06T01:48:38;4.93;;;4.22;;
64052;SDS011;50299;49.524;8.536;2022-07-06T01:51:05;3.88;;;3.53;;
64052;SDS011;50299;49.524;8.536;2022-07-06T01:53:32;4.63;;;4.13;;
64052;SDS011;50299;49.524;8.536;2022-07-06T01:55:59;4.45;;;4.03;;
64052;SDS011;50299;49.524;8.536;2022-07-06T01:58:25;4.10;;;3.70;;
64052;SDS011;50299;49.524;8.536;2022-07-06T02:00:52;4.35;;;3.83;;
64052;SDS011;50299;49.524;8.536;2022-07-06T02:03:19;4.47;;;3.58;;
64052;SDS011;50299;49.524;8.536;2022-07-06T02:05:45;4.00;;;3.47;;
64052;SDS011;50299;49.524;8.536;2022-07-06T02:08:12;4.80;;;3.72;;
64052;SDS011;50299;49.524;8.536;2022-07-06T02:10:38;4.88;;;3.85;;
64052;SDS011;50299;49.524;8.536;2022-07-06T02:13:05;5.65;;;4.05;;
64052;SDS011;50299;49.524;8.536;2022-07-06T02:15:31;4.25;;;3.90;;
64052;SDS011;50299;49.524;8.536;2022-07-06T02:17:57;4.32;;;3.90;;
64052;SDS011;50299;49.524;8.536;2022-07-06T02:20:24;5.45;;;3.88;;
64052;SDS011;50299;49.524;8.536;2022-07-06T02:22:51;3.92;;;3.63;;
64052;SDS011;50299;49.524;8.536;2022-07-06T02:25:17;5.72;;;3.53;;
64052;SDS011;50299;49.524;8.536;2022-07-06T02:27:43;4.15;;;3.75;;
64052;SDS011;50299;49.524;8.536;2022-07-06T02:30:10;3.83;;;3.53;;
64052;SDS011;50299;49.524;8.536;2022-07-06T02:32:36;3.78;;;3.47;;
64052;SDS011;50299;49.524;8.536;2022-07-06T02:35:03;4.07;;;3.72;;
64052;SDS011;50299;49.524;8.536;2022-07-06T02:37:30;4.00;;;3.70;;
64052;SDS011;50299;49.524;8.536;2022-07-06T02:39:56;3.78;;;3.58;;
64052;SDS011;50299;49.524;8.536;2022-07-06T02:42:23;4.00;;;3.70;;
64052;SDS011;50299;49.524;8.536;2022-07-06T02:44:49;4.90;;;3.78;;
64052;SDS011;50299;49.524;8.536;2022-07-06T02:47:19;4.85;;;4.35;;
64052;SDS011;50299;49.524;8.536;2022-07-06T02:49:45;5.47;;;3.78;;
64052;SDS011;50299;49.524;8.536;2022-07-06T02:52:12;4.35;;;3.95;;
64052;SDS011;50299;49.524;8.536;2022-07-06T02:54:38;4.57;;;3.67;;
64052;SDS011;50299;49.524;8.536;2022-07-06T02:57:04;4.55;;;4.15;;
64052;SDS011;50299;49.524;8.536;2022-07-06T02:59:31;4.15;;;3.85;;
64052;SDS011;50299;49.524;8.536;2022-07-06T03:01:57;4.85;;;4.38;;
64052;SDS011;50299;49.524;8.536;2022-07-06T03:04:24;5.05;;;4.63;;
64052;SDS011;50299;49.524;8.536;2022-07-06T03:06:50;4.82;;;4.53;;
64052;SDS011;50299;49.524;8.536;2022-07-06T03:09:17;4.57;;;4.20;;
64052;SDS011;50299;49.524;8.536;2022-07-06T03:11:43;4.25;;;3.95;;
64052;SDS011;50299;49.524;8.536;2022-07-06T03:14:09;5.72;;;5.22;;
64052;SDS011;50299;49.524;8.536;2022-07-06T03:16:36;4.97;;;4.63;;
64052;SDS011;50299;49.524;8.536;2022-07-06T03:19:02;4.18;;;3.88;;
64052;SDS011;50299;49.524;8.536;2022-07-06T03:21:29;4.88;;;4.40;;
64052;SDS011;50299;49.524;8.536;2022-07-06T03:23:56;4.55;;;4.15;;
64052;SDS011;50299;49.524;8.536;2022-07-06T03:26:22;4.47;;;4.07;;
64052;SDS011;50299;49.524;8.536;2022-07-06T03:28:48;4.72;;;4.30;;
64052;SDS011;50299;49.524;8.536;2022-07-06T03:31:15;5.32;;;4.20;;
64052;SDS011;50299;49.524;8.536;2022-07-06T03:33:42;5.53;;;5.07;;
64052;SDS011;50299;49.524;8.536;2022-07-06T03:36:08;5.40;;;4.97;;
64052;SDS011;50299;49.524;8.536;2022-07-06T03:38:35;4.70;;;4.30;;
64052;SDS011;50299;49.524;8.536;2022-07-06T03:41:02;4.80;;;4.40;;
64052;SDS011;50299;49.524;8.536;2022-07-06T03:43:29;5.28;;;4.78;;
64052;SDS011;50299;49.524;8.536;2022-07-06T03:45:56;5.97;;;5.47;;
64052;SDS011;50299;49.524;8.536;2022-07-06T03:48:22;5.07;;;4.68;;
64052;SDS011;50299;49.524;8.536;2022-07-06T03:50:50;8.90;;;5.50;;
64052;SDS011;50299;49.524;8.536;2022-07-06T03:53:16;9.88;;;5.63;;
64052;SDS011;50299;49.524;8.536;2022-07-06T03:55:42;5.15;;;4.65;;
64052;SDS011;50299;49.524;8.536;2022-07-06T03:58:09;5.40;;;4.30;;
64052;SDS011;50299;49.524;8.536;2022-07-06T04:00:35;5.25;;;4.85;;
64052;SDS011;50299;49.524;8.536;2022-07-06T04:03:02;6.78;;;5.13;;
64052;SDS011;50299;49.524;8.536;2022-07-06T04:05:28;5.68;;;5.22;;
64052;SDS011;50299;49.524;8.536;2022-07-06T04:07:55;5.05;;;4.53;;
64052;SDS011;50299;49.524;8.536;2022-07-06T04:10:21;5.43;;;4.93;;
64052;SDS011;50299;49.524;8.536;2022-07-06T04:12:47;5.38;;;4.88;;
64052;SDS011;50299;49.524;8.536;2022-07-06T04:15:14;6.13;;;5.53;;
64052;SDS011;50299;49.524;8.536;2022-07-06T04:17:40;5.00;;;4.50;;
64052;SDS011;50299;49.524;8.536;2022-07-06T04:20:25;6.25;;;5.65;;
64052;SDS011;50299;49.524;8.536;2022-07-06T04:22:54;6.32;;;5.25;;
64052;SDS011;50299;49.524;8.536;2022-07-06T04:25:20;5.65;;;4.82;;
64052;SDS011;50299;49.524;8.536;2022-07-06T04:27:47;5.20;;;4.70;;
64052;SDS011;50299;49.524;8.536;2022-07-06T04:30:13;5.45;;;4.80;;
64052;SDS011;50299;49.524;8.536;2022-07-06T04:32:40;5.50;;;4.63;;
64052;SDS011;50299;49.524;8.536;2022-07-06T04:35:06;5.00;;;4.47;;
64052;SDS011;50299;49.524;8.536;2022-07-06T04:37:33;4.88;;;4.47;;
64052;SDS011;50299;49.524;8.536;2022-07-06T04:39:59;18.10;;;6.10;;
64052;SDS011;50299;49.524;8.536;2022-07-06T04:42:26;6.80;;;5.05;;
64052;SDS011;50299;49.524;8.536;2022-07-06T04:44:52;5.00;;;4.60;;
64052;SDS011;50299;49.524;8.536;2022-07-06T04:47:19;5.45;;;4.95;;
64052;SDS011;50299;49.524;8.536;2022-07-06T04:49:45;12.82;;;5.43;;
64052;SDS011;50299;49.524;8.536;2022-07-06T04:52:12;10.15;;;4.85;;
64052;SDS011;50299;49.524;8.536;2022-07-06T04:54:38;10.55;;;4.45;;
64052;SDS011;50299;49.524;8.536;2022-07-06T04:57:04;7.47;;;4.30;;
64052;SDS011;50299;49.524;8.536;2022-07-06T04:59:37;10.75;;;5.55;;
64052;SDS011;50299;49.524;8.536;2022-07-06T05:02:04;6.60;;;3.58;;
64052;SDS011;50299;49.524;8.536;2022-07-06T05:04:31;3.97;;;3.05;;
64052;SDS011;50299;49.524;8.536;2022-07-06T05:06:58;7.40;;;3.40;;
64052;SDS011;50299;49.524;8.536;2022-07-06T05:09:24;8.40;;;3.08;;
64052;SDS011;50299;49.524;8.536;2022-07-06T05:11:51;6.57;;;2.90;;
64052;SDS011;50299;49.524;8.536;2022-07-06T05:14:17;4.88;;;2.70;;
64052;SDS011;50299;49.524;8.536;2022-07-06T05:16:44;3.42;;;2.25;;
64052;SDS011;50299;49.524;8.536;2022-07-06T05:19:10;5.72;;;3.00;;
64052;SDS011;50299;49.524;8.536;2022-07-06T05:21:37;2.35;;;2.15;;
64052;SDS011;50299;49.524;8.536;2022-07-06T05:24:03;2.83;;;2.63;;
64052;SDS011;50299;49.524;8.536;2022-07-06T05:26:30;5.25;;;2.72;;
64052;SDS011;50299;49.524;8.536;2022-07-06T05:28:56;4.72;;;2.10;;
64052;SDS011;50299;49.524;8.536;2022-07-06T05:31:23;5.72;;;2.53;;
64052;SDS011;50299;49.524;8.536;2022-07-06T05:33:49;3.20;;;2.40;;
64052;SDS011;50299;49.524;8.536;2022-07-06T05:36:15;4.30;;;2.60;;
64052;SDS011;50299;49.524;8.536;2022-07-06T05:38:42;4.60;;;2.38;;
64052;SDS011;50299;49.524;8.536;2022-07-06T05:41:09;4.03;;;2.45;;
64052;SDS011;50299;49.524;8.536;2022-07-06T05:43:35;5.90;;;2.85;;
64052;SDS011;50299;49.524;8.536;2022-07-06T05:46:03;4.32;;;2.67;;
64052;SDS011;50299;49.524;8.536;2022-07-06T05:48:30;3.22;;;2.75;;
64052;SDS011;50299;49.524;8.536;2022-07-06T05:51:15;6.57;;;3.10;;
64052;SDS011;50299;49.524;8.536;2022-07-06T05:53:41;3.65;;;2.65;;
64052;SDS011;50299;49.524;8.536;2022-07-06T05:56:07;4.60;;;3.13;;
64052;SDS011;50299;49.524;8.536;2022-07-06T05:58:34;3.78;;;3.28;;
64052;SDS011;50299;49.524;8.536;2022-07-06T06:01:01;4.72;;;2.80;;
64052;SDS011;50299;49.524;8.536;2022-07-06T06:03:27;4.35;;;2.50;;
64052;SDS011;50299;49.524;8.536;2022-07-06T06:05:54;4.25;;;3.47;;
64052;SDS011;50299;49.524;8.536;2022-07-06T06:08:20;4.38;;;3.00;;
64052;SDS011;50299;49.524;8.536;2022-07-06T06:10:47;27.55;;;6.18;;
64052;SDS011;50299;49.524;8.536;2022-07-06T06:13:14;3.75;;;2.50;;
64052;SDS011;50299;49.524;8.536;2022-07-06T06:15:40;5.32;;;2.92;;
64052;SDS011;50299;49.524;8.536;2022-07-06T06:18:07;6.57;;;2.95;;
64052;SDS011;50299;49.524;8.536;2022-07-06T06:20:34;4.38;;;2.85;;
64052;SDS011;50299;49.524;8.536;2022-07-06T06:23:00;6.68;;;3.00;;
64052;SDS011;50299;49.524;8.536;2022-07-06T06:25:28;4.57;;;3.05;;
64052;SDS011;50299;49.524;8.536;2022-07-06T06:27:57;5.93;;;3.30;;
64052;SDS011;50299;49.524;8.536;2022-07-06T06:30:24;5.85;;;3.80;;
64052;SDS011;50299;49.524;8.536;2022-07-06T06:32:51;5.15;;;3.28;;
64052;SDS011;50299;49.524;8.536;2022-07-06T06:35:18;6.18;;;3.20;;
64052;SDS011;50299;49.524;8.536;2022-07-06T06:37:44;5.18;;;2.65;;
64052;SDS011;50299;49.524;8.536;2022-07-06T06:40:11;10.93;;;3.58;;
64052;SDS011;50299;49.524;8.536;2022-07-06T06:42:38;7.60;;;3.97;;
64052;SDS011;50299;49.524;8.536;2022-07-06T06:45:04;4.32;;;2.95;;
64052;SDS011;50299;49.524;8.536;2022-07-06T06:47:31;5.70;;;3.10;;
64052;SDS011;50299;49.524;8.536;2022-07-06T06:49:58;6.07;;;3.60;;
64052;SDS011;50299;49.524;8.536;2022-07-06T06:52:24;5.80;;;2.90;;
64052;SDS011;50299;49.524;8.536;2022-07-06T06:55:07;3.40;;;2.65;;
64052;SDS011;50299;49.524;8.536;2022-07-06T06:57:33;6.43;;;3.08;;
64052;SDS011;50299;49.524;8.536;2022-07-06T07:00:00;4.13;;;3.20;;
64052;SDS011;50299;49.524;8.536;2022-07-06T07:02:27;7.03;;;3.30;;
64052;SDS011;50299;49.524;8.536;2022-07-06T07:04:53;5.32;;;3.00;;
64052;SDS011;50299;49.524;8.536;2022-07-06T07:07:21;4.68;;;3.38;;
64052;SDS011;50299;49.524;8.536;2022-07-06T07:09:48;4.43;;;3.42;;
64052;SDS011;50299;49.524;8.536;2022-07-06T07:12:14;4.30;;;3.28;;
64052;SDS011;50299;49.524;8.536;2022-07-06T07:14:43;4.18;;;3.00;;
64052;SDS011;50299;49.524;8.536;2022-07-06T07:17:10;3.95;;;2.92;;
64052;SDS011;50299;49.524;8.536;2022-07-06T07:19:37;4.53;;;2.85;;
64052;SDS011;50299;49.524;8.536;2022-07-06T07:22:04;4.55;;;3.40;;
64052;SDS011;50299;49.524;8.536;2022-07-06T07:24:30;3.17;;;2.95;;
64052;SDS011;50299;49.524;8.536;2022-07-06T07:26:57;7.38;;;4.00;;
64052;SDS011;50299;49.524;8.536;2022-07-06T07:29:23;5.95;;;3.20;;
64052;SDS011;50299;49.524;8.536;2022-07-06T07:31:49;4.80;;;3.53;;
64052;SDS011;50299;49.524;8.536;2022-07-06T07:34:16;5.47;;;3.88;;
64052;SDS011;50299;49.524;8.536;2022-07-06T07:36:43;6.28;;;4.05;;
64052;SDS011;50299;49.524;8.536;2022-07-06T07:39:09;5.97;;;3.90;;
64052;SDS011;50299;49.524;8.536;2022-07-06T07:41:36;5.10;;;3.17;;
64052;SDS011;50299;49.524;8.536;2022-07-06T07:44:02;4.55;;;3.28;;
64052;SDS011;50299;49.524;8.536;2022-07-06T07:46:29;19.65;;;4.50;;
64052;SDS011;50299;49.524;8.536;2022-07-06T07:48:55;5.03;;;3.40;;
64052;SDS011;50299;49.524;8.536;2022-07-06T07:51:22;5.88;;;3.33;;
64052;SDS011;50299;49.524;8.536;2022-07-06T07:53:48;22.40;;;4.63;;
64052;SDS011;50299;49.524;8.536;2022-07-06T07:56:14;7.13;;;3.50;;
64052;SDS011;50299;49.524;8.536;2022-07-06T07:58:41;5.10;;;3.30;;
64052;SDS011;50299;49.524;8.536;2022-07-06T08:01:07;5.90;;;3.58;;
64052;SDS011;50299;49.524;8.536;2022-07-06T08:03:34;4.95;;;3.30;;
64052;SDS011;50299;49.524;8.536;2022-07-06T08:06:00;4.80;;;3.03;;
64052;SDS011;50299;49.524;8.536;2022-07-06T08:08:27;3.70;;;2.83;;
64052;SDS011;50299;49.524;8.536;2022-07-06T08:10:54;4.68;;;3.17;;
64052;SDS011;50299;49.524;8.536;2022-07-06T08:13:40;9.73;;;3.55;;
64052;SDS011;50299;49.524;8.536;2022-07-06T08:16:07;5.13;;;3.15;;
64052;SDS011;50299;49.524;8.536;2022-07-06T08:18:34;4.47;;;2.92;;
64052;SDS011;50299;49.524;8.536;2022-07-06T08:21:01;10.88;;;3.70;;
64052;SDS011;50299;49.524;8.536;2022-07-06T08:23:48;4.63;;;3.13;;
64052;SDS011;50299;49.524;8.536;2022-07-06T08:26:14;2.92;;;2.58;;
64052;SDS011;50299;49.524;8.536;2022-07-06T08:28:43;5.35;;;2.72;;
64052;SDS011;50299;49.524;8.536;2022-07-06T08:31:09;4.47;;;2.35;;
64052;SDS011;50299;49.524;8.536;2022-07-06T08:33:56;5.57;;;3.00;;
64052;SDS011;50299;49.524;8.536;2022-07-06T08:36:22;3.97;;;3.03;;
64052;SDS011;50299;49.524;8.536;2022-07-06T08:38:49;3.60;;;3.13;;
64052;SDS011;50299;49.524;8.536;2022-07-06T08:41:16;7.13;;;3.08;;
64052;SDS011;50299;49.524;8.536;2022-07-06T08:43:50;4.93;;;4.00;;
64052;SDS011;50299;49.524;8.536;2022-07-06T08:46:18;6.93;;;3.83;;
64052;SDS011;50299;49.524;8.536;2022-07-06T08:48:45;5.38;;;3.08;;
64052;SDS011;50299;49.524;8.536;2022-07-06T08:51:13;6.90;;;3.28;;
64052;SDS011;50299;49.524;8.536;2022-07-06T08:53:44;5.30;;;3.17;;
64052;SDS011;50299;49.524;8.536;2022-07-06T08:56:12;6.40;;;3.53;;
64052;SDS011;50299;49.524;8.536;2022-07-06T08:58:39;3.85;;;2.80;;
64052;SDS011;50299;49.524;8.536;2022-07-06T09:01:09;4.25;;;2.67;;
64052;SDS011;50299;49.524;8.536;2022-07-06T09:03:38;2.75;;;2.17;;
64052;SDS011;50299;49.524;8.536;2022-07-06T09:06:09;4.32;;;2.78;;
64052;SDS011;50299;49.524;8.536;2022-07-06T09:08:37;5.03;;;2.67;;
64052;SDS011;50299;49.524;8.536;2022-07-06T09:11:03;7.00;;;2.72;;
64052;SDS011;50299;49.524;8.536;2022-07-06T09:13:31;3.15;;;2.40;;
64052;SDS011;50299;49.524;8.536;2022-07-06T09:16:08;3.35;;;2.70;;
64052;SDS011;50299;49.524;8.536;2022-07-06T09:18:56;5.10;;;2.67;;
64052;SDS011;50299;49.524;8.536;2022-07-06T09:21:27;2.28;;;2.08;;
64052;SDS011;50299;49.524;8.536;2022-07-06T09:23:59;3.45;;;2.35;;
64052;SDS011;50299;49.524;8.536;2022-07-06T09:26:30;3.55;;;2.28;;
64052;SDS011;50299;49.524;8.536;2022-07-06T09:28:57;5.22;;;2.50;;
64052;SDS011;50299;49.524;8.536;2022-07-06T09:31:25;3.83;;;2.63;;
64052;SDS011;50299;49.524;8.536;2022-07-06T09:33:53;4.82;;;2.70;;
64052;SDS011;50299;49.524;8.536;2022-07-06T09:36:37;6.32;;;3.05;;
64052;SDS011;50299;49.524;8.536;2022-07-06T09:39:14;6.43;;;2.92;;
64052;SDS011;50299;49.524;8.536;2022-07-06T09:41:44;3.38;;;2.25;;
64052;SDS011;50299;49.524;8.536;2022-07-06T09:44:11;4.43;;;2.75;;
64052;SDS011;50299;49.524;8.536;2022-07-06T09:46:39;4.90;;;2.40;;
64052;SDS011;50299;49.524;8.536;2022-07-06T09:49:07;3.63;;;2.67;;
64052;SDS011;50299;49.524;8.536;2022-07-06T09:51:37;3.72;;;2.75;;
64052;SDS011;50299;49.524;8.536;2022-07-06T09:54:08;5.47;;;3.33;;
64052;SDS011;50299;49.524;8.536;2022-07-06T09:56:36;3.00;;;2.33;;
64052;SDS011;50299;49.524;8.536;2022-07-06T09:59:12;4.35;;;2.22;;
64052;SDS011;50299;49.524;8.536;2022-07-06T10:01:41;4.03;;;2.25;;
64052;SDS011;50299;49.524;8.536;2022-07-06T10:04:10;5.30;;;2.72;;
64052;SDS011;50299;49.524;8.536;2022-07-06T10:06:44;4.70;;;2.47;;
64052;SDS011;50299;49.524;8.536;2022-07-06T10:09:13;3.85;;;2.50;;
64052;SDS011;50299;49.524;8.536;2022-07-06T10:11:41;4.10;;;2.60;;
64052;SDS011;50299;49.524;8.536;2022-07-06T10:14:10;7.75;;;2.80;;
64052;SDS011;50299;49.524;8.536;2022-07-06T10:16:41;2.80;;;2.53;;
64052;SDS011;50299;49.524;8.536;2022-07-06T10:19:08;4.13;;;2.83;;
64052;SDS011;50299;49.524;8.536;2022-07-06T10:21:36;4.60;;;2.30;;
64052;SDS011;50299;49.524;8.536;2022-07-06T10:24:06;4.88;;;2.67;;
64052;SDS011;50299;49.524;8.536;2022-07-06T10:26:34;3.15;;;2.75;;
64052;SDS011;50299;49.524;8.536;2022-07-06T10:29:02;3.17;;;2.33;;
64052;SDS011;50299;49.524;8.536;2022-07-06T10:31:30;3.33;;;2.17;;
64052;SDS011;50299;49.524;8.536;2022-07-06T10:33:59;3.50;;;1.95;;
64052;SDS011;50299;49.524;8.536;2022-07-06T10:36:28;6.05;;;2.53;;
64052;SDS011;50299;49.524;8.536;2022-07-06T10:38:55;3.58;;;1.95;;
64052;SDS011;50299;49.524;8.536;2022-07-06T10:41:31;2.53;;;2.10;;
64052;SDS011;50299;49.524;8.536;2022-07-06T10:44:14;3.03;;;1.95;;
64052;SDS011;50299;49.524;8.536;2022-07-06T10:46:41;4.13;;;2.22;;
64052;SDS011;50299;49.524;8.536;2022-07-06T10:49:16;4.47;;;2.15;;
64052;SDS011;50299;49.524;8.536;2022-07-06T10:52:03;2.83;;;1.48;;
64052;SDS011;50299;49.524;8.536;2022-07-06T10:54:32;3.22;;;2.15;;
64052;SDS011;50299;49.524;8.536;2022-07-06T10:57:09;2.60;;;1.58;;
64052;SDS011;50299;49.524;8.536;2022-07-06T10:59:36;2.17;;;1.85;;
64052;SDS011;50299;49.524;8.536;2022-07-06T11:02:16;3.47;;;1.60;;
64052;SDS011;50299;49.524;8.536;2022-07-06T11:04:45;3.53;;;1.38;;
64052;SDS011;50299;49.524;8.536;2022-07-06T11:09:41;2.83;;;1.25;;
64052;SDS011;50299;49.524;8.536;2022-07-06T11:12:19;3.47;;;1.58;;
64052;SDS011;50299;49.524;8.536;2022-07-06T11:14:47;2.65;;;1.73;;
64052;SDS011;50299;49.524;8.536;2022-07-06T11:17:14;2.03;;;1.65;;
64052;SDS011;50299;49.524;8.536;2022-07-06T11:20:08;7.45;;;1.85;;
64052;SDS011;50299;49.524;8.536;2022-07-06T11:22:37;1.85;;;1.63;;
64052;SDS011;50299;49.524;8.536;2022-07-06T11:25:04;1.38;;;1.27;;
64052;SDS011;50299;49.524;8.536;2022-07-06T11:27:33;4.78;;;2.35;;
64052;SDS011;50299;49.524;8.536;2022-07-06T11:30:00;3.92;;;1.58;;
64052;SDS011;50299;49.524;8.536;2022-07-06T11:32:27;2.10;;;1.70;;
64052;SDS011;50299;49.524;8.536;2022-07-06T11:34:55;2.80;;;1.77;;
64052;SDS011;50299;49.524;8.536;2022-07-06T11:37:21;1.52;;;1.42;;
64052;SDS011;50299;49.524;8.536;2022-07-06T11:39:49;1.70;;;1.60;;
64052;SDS011;50299;49.524;8.536;2022-07-06T11:42:17;1.83;;;1.67;;
64052;SDS011;50299;49.524;8.536;2022-07-06T11:44:44;3.33;;;2.03;;
64052;SDS011;50299;49.524;8.536;2022-07-06T11:47:12;3.33;;;2.05;;
64052;SDS011;50299;49.524;8.536;2022-07-06T11:49:39;5.35;;;2.03;;
64052;SDS011;50299;49.524;8.536;2022-07-06T11:54:34;3.33;;;1.90;;
64052;SDS011;50299;49.524;8.536;2022-07-06T11:57:00;7.82;;;2.65;;
64052;SDS011;50299;49.524;8.536;2022-07-06T11:59:33;3.08;;;1.95;;
64052;SDS011;50299;49.524;8.536;2022-07-06T12:04:29;2.63;;;2.30;;
64052;SDS011;50299;49.524;8.536;2022-07-06T12:07:04;3.30;;;2.72;;
64052;SDS011;50299;49.524;8.536;2022-07-06T12:09:36;2.58;;;2.22;;
64052;SDS011;50299;49.524;8.536;2022-07-06T12:12:03;2.63;;;2.42;;
64052;SDS011;50299;49.524;8.536;2022-07-06T12:14:31;3.50;;;2.88;;
64052;SDS011;50299;49.524;8.536;2022-07-06T12:17:04;3.38;;;2.35;;
64052;SDS011;50299;49.524;8.536;2022-07-06T12:19:32;2.85;;;2.63;;
64052;SDS011;50299;49.524;8.536;2022-07-06T12:21:59;3.10;;;2.90;;
64052;SDS011;50299;49.524;8.536;2022-07-06T12:24:28;4.35;;;2.95;;
64052;SDS011;50299;49.524;8.536;2022-07-06T12:27:16;6.18;;;3.28;;
64052;SDS011;50299;49.524;8.536;2022-07-06T12:29:43;5.90;;;3.03;;
64052;SDS011;50299;49.524;8.536;2022-07-06T12:32:18;4.82;;;3.20;;
64052;SDS011;50299;49.524;8.536;2022-07-06T12:34:45;2.90;;;2.60;;
64052;SDS011;50299;49.524;8.536;2022-07-06T12:37:12;4.70;;;2.25;;
64052;SDS011;50299;49.524;8.536;2022-07-06T12:39:43;2.60;;;2.38;;
64052;SDS011;50299;49.524;8.536;2022-07-06T12:42:13;6.63;;;2.55;;
64052;SDS011;50299;49.524;8.536;2022-07-06T12:44:51;2.75;;;2.00;;
64052;SDS011;50299;49.524;8.536;2022-07-06T12:47:19;4.25;;;2.45;;
64052;SDS011;50299;49.524;8.536;2022-07-06T12:49:48;2.47;;;1.90;;
64052;SDS011;50299;49.524;8.536;2022-07-06T12:52:15;4.30;;;2.38;;
64052;SDS011;50299;49.524;8.536;2022-07-06T12:59:43;2.58;;;1.90;;
64052;SDS011;50299;49.524;8.536;2022-07-06T13:02:22;2.65;;;1.88;;
64052;SDS011;50299;49.524;8.536;2022-07-06T13:05:08;2.25;;;2.05;;
64052;SDS011;50299;49.524;8.536;2022-07-06T13:07:37;1.95;;;1.80;;
64052;SDS011;50299;49.524;8.536;2022-07-06T13:10:06;2.85;;;1.98;;
64052;SDS011;50299;49.524;8.536;2022-07-06T13:12:35;4.05;;;2.00;;
64052;SDS011;50299;49.524;8.536;2022-07-06T13:15:03;2.30;;;2.00;;
64052;SDS011;50299;49.524;8.536;2022-07-06T13:17:30;3.13;;;1.90;;
64052;SDS011;50299;49.524;8.536;2022-07-06T13:19:57;2.17;;;1.88;;
64052;SDS011;50299;49.524;8.536;2022-07-06T13:22:25;4.20;;;2.30;;
64052;SDS011;50299;49.524;8.536;2022-07-06T13:24:51;2.40;;;1.85;;
64052;SDS011;50299;49.524;8.536;2022-07-06T13:27:18;2.78;;;1.92;;
64052;SDS011;50299;49.524;8.536;2022-07-06T13:29:45;2.97;;;2.35;;
64052;SDS011;50299;49.524;8.536;2022-07-06T13:32:11;7.10;;;2.20;;
64052;SDS011;50299;49.524;8.536;2022-07-06T13:34:38;2.85;;;2.15;;
64052;SDS011;50299;49.524;8.536;2022-07-06T13:37:05;3.80;;;1.85;;
64052;SDS011;50299;49.524;8.536;2022-07-06T13:39:32;2.13;;;1.48;;
64052;SDS011;50299;49.524;8.536;2022-07-06T13:41:58;3.60;;;2.08;;
64052;SDS011;50299;49.524;8.536;2022-07-06T13:44:25;3.67;;;1.80;;
64052;SDS011;50299;49.524;8.536;2022-07-06T13:46:51;1.83;;;1.73;;
64052;SDS011;50299;49.524;8.536;2022-07-06T13:49:18;2.08;;;1.52;;
64052;SDS011;50299;49.524;8.536;2022-07-06T13:51:44;2.35;;;1.50;;
64052;SDS011;50299;49.524;8.536;2022-07-06T13:54:11;4.10;;;1.58;;
64052;SDS011;50299;49.524;8.536;2022-07-06T13:56:38;4.25;;;1.60;;
64052;SDS011;50299;49.524;8.536;2022-07-06T13:59:05;4.43;;;1.50;;
64052;SDS011;50299;49.524;8.536;2022-07-06T14:01:32;6.30;;;1.60;;
64052;SDS011;50299;49.524;8.536;2022-07-06T14:03:59;5.45;;;1.40;;
64052;SDS011;50299;49.524;8.536;2022-07-06T14:06:29;2.80;;;1.80;;
64052;SDS011;50299;49.524;8.536;2022-07-06T14:08:55;1.38;;;1.20;;
64052;SDS011;50299;49.524;8.536;2022-07-06T14:11:22;1.15;;;0.98;;
64052;SDS011;50299;49.524;8.536;2022-07-06T14:13:48;1.85;;;1.73;;
64052;SDS011;50299;49.524;8.536;2022-07-06T14:16:15;2.90;;;1.30;;
64052;SDS011;50299;49.524;8.536;2022-07-06T14:18:41;1.77;;;1.17;;
64052;SDS011;50299;49.524;8.536;2022-07-06T14:21:11;1.40;;;1.17;;
64052;SDS011;50299;49.524;8.536;2022-07-06T14:23:38;2.60;;;1.55;;
64052;SDS011;50299;49.524;8.536;2022-07-06T14:26:07;2.22;;;1.33;;
64052;SDS011;50299;49.524;8.536;2022-07-06T14:28:33;2.28;;;1.33;;
64052;SDS011;50299;49.524;8.536;2022-07-06T14:31:01;2.40;;;1.30;;
64052;SDS011;50299;49.524;8.536;2022-07-06T14:33:28;3.78;;;1.38;;
64052;SDS011;50299;49.524;8.536;2022-07-06T14:35:55;2.95;;;1.17;;
64052;SDS011;50299;49.524;8.536;2022-07-06T14:38:22;2.00;;;1.33;;
64052;SDS011;50299;49.524;8.536;2022-07-06T14:40:50;2.53;;;1.50;;
64052;SDS011;50299;49.524;8.536;2022-07-06T14:43:16;3.78;;;1.50;;
64052;SDS011;50299;49.524;8.536;2022-07-06T14:45:46;1.48;;;1.20;;
64052;SDS011;50299;49.524;8.536;2022-07-06T14:48:13;1.65;;;1.55;;
64052;SDS011;50299;49.524;8.536;2022-07-06T14:50:40;3.17;;;1.27;;
64052;SDS011;50299;49.524;8.536;2022-07-06T14:53:06;2.28;;;1.45;;
64052;SDS011;50299;49.524;8.536;2022-07-06T14:55:33;2.50;;;1.42;;
64052;SDS011;50299;49.524;8.536;2022-07-06T14:58:00;1.15;;;1.05;;
64052;SDS011;50299;49.524;8.536;2022-07-06T15:00:26;4.05;;;1.33;;
64052;SDS011;50299;49.524;8.536;2022-07-06T15:02:53;2.92;;;1.33;;
64052;SDS011;50299;49.524;8.536;2022-07-06T15:05:19;2.63;;;1.25;;
64052;SDS011;50299;49.524;8.536;2022-07-06T15:07:46;2.10;;;1.48;;